createdAt,value
2023-03-14T00:00:01.804Z,9.37
2023-03-14T00:01:01.745Z,9.37
2023-03-14T00:02:01.708Z,9.37
2023-03-14T00:03:01.700Z,9.40
2023-03-14T00:04:01.717Z,9.41
2023-03-14T00:05:01.690Z,9.41
2023-03-14T00:06:01.735Z,9.41
2023-03-14T00:07:01.649Z,9.44
2023-03-14T00:08:01.701Z,9.44
2023-03-14T00:09:01.723Z,9.45
2023-03-14T00:10:01.617Z,9.44
2023-03-14T00:11:01.654Z,9.44
2023-03-14T00:12:01.633Z,9.44
2023-03-14T00:13:01.568Z,9.45
2023-03-14T00:14:01.554Z,9.45
2023-03-14T00:15:01.646Z,9.45
2023-03-14T00:16:01.683Z,9.45
2023-03-14T00:17:01.548Z,9.47
2023-03-14T00:18:01.545Z,9.47
2023-03-14T00:19:01.544Z,9.47
2023-03-14T00:20:01.543Z,9.47
2023-03-14T00:21:01.528Z,9.47
2023-03-14T00:22:01.528Z,9.48
2023-03-14T00:23:01.465Z,9.48
2023-03-14T00:24:01.503Z,9.48
2023-03-14T00:25:01.467Z,9.47
2023-03-14T00:26:01.519Z,9.45
2023-03-14T00:27:01.468Z,9.47
2023-03-14T00:28:01.400Z,9.47
2023-03-14T00:29:01.435Z,9.47
2023-03-14T00:30:01.427Z,9.44
2023-03-14T00:31:01.456Z,9.44
2023-03-14T00:32:01.383Z,9.41
2023-03-14T00:33:01.361Z,9.42
2023-03-14T00:34:01.357Z,9.40
2023-03-14T00:35:01.364Z,9.40
2023-03-14T00:36:01.355Z,9.37
2023-03-14T00:37:01.333Z,9.36
2023-03-14T00:38:01.293Z,9.37
2023-03-14T00:39:01.347Z,9.36
2023-03-14T00:40:01.321Z,9.37
2023-03-14T00:41:01.308Z,9.36
2023-03-14T00:42:01.289Z,9.37
2023-03-14T00:43:01.266Z,9.37
2023-03-14T00:44:01.244Z,9.37
2023-03-14T00:45:01.257Z,9.36
2023-03-14T00:46:01.216Z,9.36
2023-03-14T00:47:01.283Z,9.37
2023-03-14T00:48:01.189Z,9.34
2023-03-14T00:49:01.192Z,9.34
2023-03-14T00:50:01.193Z,9.34
2023-03-14T00:51:01.190Z,9.36
2023-03-14T00:52:01.177Z,9.37
2023-03-14T00:53:01.144Z,9.34
2023-03-14T00:54:01.159Z,9.34
2023-03-14T00:55:01.125Z,9.34
2023-03-14T00:56:01.142Z,9.34
2023-03-14T00:57:01.111Z,9.32
2023-03-14T00:58:01.074Z,9.32
2023-03-14T00:59:01.112Z,9.32
2023-03-14T01:00:01.051Z,9.30
2023-03-14T01:01:01.093Z,9.33
2023-03-14T01:02:01.078Z,9.33
2023-03-14T01:03:01.157Z,9.32
2023-03-14T01:04:01.049Z,9.29
2023-03-14T01:05:01.133Z,9.29
2023-03-14T01:06:01.031Z,9.24
2023-03-14T01:07:01.018Z,9.26
2023-03-14T01:08:01.005Z,9.24
2023-03-14T01:09:00.986Z,9.26
2023-03-14T01:10:00.956Z,9.24
2023-03-14T01:11:00.960Z,9.24
2023-03-14T01:12:01.006Z,9.23
2023-03-14T01:13:00.974Z,9.23
2023-03-14T01:14:00.922Z,9.24
2023-03-14T01:15:00.911Z,9.26
2023-03-14T01:16:00.953Z,9.26
2023-03-14T01:17:00.929Z,9.24
2023-03-14T01:18:00.878Z,9.24
2023-03-14T01:19:00.916Z,9.26
2023-03-14T01:20:00.900Z,9.27
2023-03-14T01:21:00.861Z,9.29
2023-03-14T01:22:00.907Z,9.33
2023-03-14T01:23:00.842Z,9.34
2023-03-14T01:24:00.821Z,9.34
2023-03-14T01:25:00.800Z,9.34
2023-03-14T01:26:00.770Z,9.36
2023-03-14T01:27:00.829Z,9.36
2023-03-14T01:28:00.796Z,9.34
2023-03-14T01:29:00.758Z,9.34
2023-03-14T01:30:00.781Z,9.34
2023-03-14T01:31:00.922Z,9.34
2023-03-14T01:32:00.757Z,9.33
2023-03-14T01:33:00.695Z,9.34
2023-03-14T01:34:00.695Z,9.34
2023-03-14T01:35:00.680Z,9.34
2023-03-14T01:36:00.723Z,9.37
2023-03-14T01:37:00.695Z,9.40
2023-03-14T01:38:00.651Z,9.40
2023-03-14T01:39:00.654Z,9.40
2023-03-14T01:40:00.619Z,9.40
2023-03-14T01:41:00.677Z,9.40
2023-03-14T01:42:00.635Z,9.37
2023-03-14T01:43:00.614Z,9.40
2023-03-14T01:44:00.640Z,9.36
2023-03-14T01:45:00.616Z,9.36
2023-03-14T01:46:00.628Z,9.37
2023-03-14T01:47:00.548Z,9.37
2023-03-14T01:48:00.607Z,9.40
2023-03-14T01:49:00.562Z,9.41
2023-03-14T01:50:00.596Z,9.41
2023-03-14T01:51:00.508Z,9.40
2023-03-14T01:52:00.548Z,9.40
2023-03-14T01:53:00.486Z,9.40
2023-03-14T01:54:00.521Z,9.40
2023-03-14T01:55:00.504Z,9.40
2023-03-14T01:56:00.488Z,9.40
2023-03-14T01:57:00.524Z,9.37
2023-03-14T01:58:00.465Z,9.36
2023-03-14T01:59:00.453Z,9.34
2023-03-14T02:00:00.472Z,9.37
2023-03-14T02:01:00.486Z,9.36
2023-03-14T02:02:00.407Z,9.36
2023-03-14T02:03:00.375Z,9.36
2023-03-14T02:04:00.348Z,9.37
2023-03-14T02:05:00.380Z,9.37
2023-03-14T02:06:00.366Z,9.36
2023-03-14T02:07:00.337Z,9.36
2023-03-14T02:08:00.340Z,9.36
2023-03-14T02:09:00.315Z,9.36
2023-03-14T02:10:00.289Z,9.40
2023-03-14T02:11:00.335Z,9.37
2023-03-14T02:12:00.362Z,9.37
2023-03-14T02:13:00.335Z,9.37
2023-03-14T02:14:00.252Z,9.37
2023-03-14T02:15:00.269Z,9.37
2023-03-14T02:16:00.269Z,9.40
2023-03-14T02:17:00.255Z,9.42
2023-03-14T02:18:00.247Z,9.42
2023-03-14T02:19:00.231Z,9.41
2023-03-14T02:20:00.280Z,9.41
2023-03-14T02:21:00.275Z,9.41
2023-03-14T02:22:00.188Z,9.41
2023-03-14T02:23:00.163Z,9.44
2023-03-14T02:24:00.172Z,9.44
2023-03-14T02:25:00.146Z,9.44
2023-03-14T02:26:00.193Z,9.42
2023-03-14T02:27:00.113Z,9.42
2023-03-14T02:28:00.145Z,9.40
2023-03-14T02:29:00.102Z,9.44
2023-03-14T02:30:00.149Z,9.44
2023-03-14T02:31:00.094Z,9.42
2023-03-14T02:32:00.165Z,9.45
2023-03-14T02:33:00.218Z,9.45
2023-03-14T02:34:00.114Z,9.44
2023-03-14T02:35:00.036Z,9.44
2023-03-14T02:36:00.163Z,9.45
2023-03-14T02:37:00.039Z,9.45
2023-03-14T02:38:00.006Z,9.45
2023-03-14T02:38:59.984Z,9.44
2023-03-14T02:39:59.991Z,9.45
2023-03-14T02:41:00.030Z,9.44
2023-03-14T02:41:59.960Z,9.44
2023-03-14T02:42:59.975Z,9.42
2023-03-14T02:43:59.917Z,9.42
2023-03-14T02:44:59.986Z,9.44
2023-03-14T02:45:59.992Z,9.44
2023-03-14T02:46:59.922Z,9.42
2023-03-14T02:47:59.954Z,9.41
2023-03-14T02:48:59.902Z,9.42
2023-03-14T02:49:59.867Z,9.44
2023-03-14T02:50:59.849Z,9.45
2023-03-14T02:51:59.837Z,9.48
2023-03-14T02:52:59.830Z,9.48
2023-03-14T02:53:59.800Z,9.48
2023-03-14T02:54:59.825Z,9.50
2023-03-14T02:55:59.852Z,9.50
2023-03-14T02:56:59.758Z,9.48
2023-03-14T02:57:59.833Z,9.50
2023-03-14T02:58:59.766Z,9.47
2023-03-14T02:59:59.812Z,9.45
2023-03-14T03:00:59.793Z,9.45
2023-03-14T03:01:59.739Z,9.44
2023-03-14T03:02:59.749Z,9.45
2023-03-14T03:03:59.711Z,9.45
2023-03-14T03:04:59.705Z,9.42
2023-03-14T03:05:59.783Z,9.42
2023-03-14T03:06:59.701Z,9.41
2023-03-14T03:07:59.686Z,9.42
2023-03-14T03:08:59.662Z,9.42
2023-03-14T03:09:59.706Z,9.41
2023-03-14T03:10:59.649Z,9.41
2023-03-14T03:11:59.713Z,9.41
2023-03-14T03:12:59.606Z,9.41
2023-03-14T03:13:59.585Z,9.41
2023-03-14T03:14:59.585Z,9.41
2023-03-14T03:15:59.574Z,9.42
2023-03-14T03:16:59.655Z,9.42
2023-03-14T03:17:59.586Z,9.42
2023-03-14T03:18:59.574Z,9.45
2023-03-14T03:19:59.567Z,9.47
2023-03-14T03:20:59.553Z,9.48
2023-03-14T03:21:59.517Z,9.47
2023-03-14T03:22:59.503Z,9.48
2023-03-14T03:23:59.512Z,9.50
2023-03-14T03:24:59.525Z,9.50
2023-03-14T03:25:59.471Z,9.48
2023-03-14T03:26:59.506Z,9.47
2023-03-14T03:27:59.481Z,9.47
2023-03-14T03:28:59.448Z,9.45
2023-03-14T03:29:59.451Z,9.47
2023-03-14T03:30:59.590Z,9.47
2023-03-14T03:31:59.439Z,9.45
2023-03-14T03:32:59.496Z,9.44
2023-03-14T03:33:59.398Z,9.45
2023-03-14T03:34:59.449Z,9.45
2023-03-14T03:35:59.489Z,9.45
2023-03-14T03:36:59.384Z,9.44
2023-03-14T03:37:59.347Z,9.47
2023-03-14T03:38:59.341Z,9.45
2023-03-14T03:39:59.332Z,9.47
2023-03-14T03:40:59.392Z,9.45
2023-03-14T03:41:59.341Z,9.45
2023-03-14T03:42:59.287Z,9.44
2023-03-14T03:43:59.320Z,9.42
2023-03-14T03:44:59.299Z,9.41
2023-03-14T03:45:59.317Z,9.42
2023-03-14T03:46:59.238Z,9.41
2023-03-14T03:47:59.239Z,9.41
2023-03-14T03:48:59.228Z,9.41
2023-03-14T03:49:59.313Z,9.41
2023-03-14T03:50:59.244Z,9.40
2023-03-14T03:51:59.211Z,9.40
2023-03-14T03:52:59.207Z,9.40
2023-03-14T03:53:59.216Z,9.37
2023-03-14T03:54:59.189Z,9.40
2023-03-14T03:55:59.163Z,9.41
2023-03-14T03:56:59.158Z,9.40
2023-03-14T03:57:59.142Z,9.37
2023-03-14T03:58:59.134Z,9.36
2023-03-14T03:59:59.191Z,9.37
2023-03-14T04:00:59.096Z,9.37
2023-03-14T04:01:59.111Z,9.37
2023-03-14T04:02:59.077Z,9.37
2023-03-14T04:03:59.152Z,9.40
2023-03-14T04:04:59.036Z,9.40
2023-03-14T04:05:59.113Z,9.40
2023-03-14T04:06:59.017Z,9.42
2023-03-14T04:07:59.009Z,9.40
2023-03-14T04:08:59.016Z,9.41
2023-03-14T04:09:59.038Z,9.40
2023-03-14T04:10:59.046Z,9.40
2023-03-14T04:11:59.008Z,9.37
2023-03-14T04:12:58.976Z,9.37
2023-03-14T04:13:59.004Z,9.40
2023-03-14T04:14:58.968Z,9.41
2023-03-14T04:15:58.988Z,9.41
2023-03-14T04:16:58.908Z,9.44
2023-03-14T04:17:58.955Z,9.47
2023-03-14T04:18:58.928Z,9.44
2023-03-14T04:19:58.988Z,9.45
2023-03-14T04:20:58.874Z,9.45
2023-03-14T04:21:58.880Z,9.45
2023-03-14T04:22:58.929Z,9.44
2023-03-14T04:23:58.878Z,9.45
2023-03-14T04:24:58.891Z,9.45
2023-03-14T04:25:58.835Z,9.47
2023-03-14T04:26:58.878Z,9.45
2023-03-14T04:27:58.834Z,9.45
2023-03-14T04:28:58.792Z,9.47
2023-03-14T04:29:58.809Z,9.47
2023-03-14T04:30:58.785Z,9.47
2023-03-14T04:31:58.804Z,9.45
2023-03-14T04:32:58.837Z,9.45
2023-03-14T04:33:58.762Z,9.45
2023-03-14T04:34:58.767Z,9.47
2023-03-14T04:35:58.834Z,9.47
2023-03-14T04:36:58.745Z,9.44
2023-03-14T04:37:58.703Z,9.45
2023-03-14T04:38:58.718Z,9.45
2023-03-14T04:39:58.668Z,9.47
2023-03-14T04:40:58.781Z,9.48
2023-03-14T04:41:58.707Z,9.48
2023-03-14T04:42:58.668Z,9.50
2023-03-14T04:43:58.617Z,9.48
2023-03-14T04:44:58.656Z,9.48
2023-03-14T04:45:58.624Z,9.48
2023-03-14T04:46:58.696Z,9.47
2023-03-14T04:47:58.634Z,9.47
2023-03-14T04:48:58.582Z,9.47
2023-03-14T04:49:58.614Z,9.45
2023-03-14T04:50:58.600Z,9.47
2023-03-14T04:51:58.586Z,9.48
2023-03-14T04:52:58.535Z,9.47
2023-03-14T04:53:58.526Z,9.45
2023-03-14T04:54:58.505Z,9.47
2023-03-14T04:55:58.569Z,9.45
2023-03-14T04:56:58.587Z,9.45
2023-03-14T04:57:58.508Z,9.47
2023-03-14T04:58:58.487Z,9.45
2023-03-14T04:59:58.473Z,9.45
2023-03-14T05:00:58.426Z,9.47
2023-03-14T05:01:58.562Z,9.48
2023-03-14T05:02:58.521Z,9.48
2023-03-14T05:03:58.437Z,9.48
2023-03-14T05:04:58.442Z,9.45
2023-03-14T05:05:58.387Z,9.47
2023-03-14T05:06:58.400Z,9.47
2023-03-14T05:07:58.440Z,9.50
2023-03-14T05:08:58.398Z,9.48
2023-03-14T05:09:58.334Z,9.48
2023-03-14T05:10:58.330Z,9.47
2023-03-14T05:11:58.351Z,9.47
2023-03-14T05:12:58.305Z,9.48
2023-03-14T05:13:58.302Z,9.51
2023-03-14T05:14:58.286Z,9.50
2023-03-14T05:15:58.337Z,9.48
2023-03-14T05:16:58.260Z,9.48
2023-03-14T05:17:58.258Z,9.47
2023-03-14T05:18:58.277Z,9.48
2023-03-14T05:19:58.265Z,9.48
2023-03-14T05:20:58.182Z,9.47
2023-03-14T05:21:58.160Z,9.47
2023-03-14T05:22:58.133Z,9.47
2023-03-14T05:23:58.181Z,9.45
2023-03-14T05:24:58.165Z,9.45
2023-03-14T05:25:58.213Z,9.48
2023-03-14T05:26:58.151Z,9.48
2023-03-14T05:27:58.106Z,9.48
2023-03-14T05:28:58.094Z,9.47
2023-03-14T05:29:58.107Z,9.44
2023-03-14T05:30:58.083Z,9.44
2023-03-14T05:31:58.161Z,9.45
2023-03-14T05:32:58.269Z,9.45
2023-03-14T05:33:58.042Z,9.47
2023-03-14T05:34:58.011Z,9.47
2023-03-14T05:35:58.082Z,9.44
2023-03-14T05:36:58.038Z,9.45
2023-03-14T05:37:58.036Z,9.44
2023-03-14T05:38:58.023Z,9.47
2023-03-14T05:39:58.010Z,9.44
2023-03-14T05:40:57.989Z,9.44
2023-03-14T05:41:57.948Z,9.42
2023-03-14T05:42:57.960Z,9.42
2023-03-14T05:43:57.969Z,9.44
2023-03-14T05:44:58.008Z,9.44
2023-03-14T05:45:57.941Z,9.44
2023-03-14T05:46:57.942Z,9.44
2023-03-14T05:47:57.922Z,9.44
2023-03-14T05:48:57.898Z,9.44
2023-03-14T05:49:57.916Z,9.42
2023-03-14T05:50:57.886Z,9.42
2023-03-14T05:51:57.868Z,9.41
2023-03-14T05:52:57.865Z,9.41
2023-03-14T05:53:57.841Z,9.41
2023-03-14T05:54:57.824Z,9.40
2023-03-14T05:55:58.315Z,9.40
2023-03-14T05:56:57.782Z,9.41
2023-03-14T05:57:57.765Z,9.40
2023-03-14T05:58:57.768Z,9.41
2023-03-14T05:59:57.748Z,9.41
2023-03-14T06:00:57.736Z,9.37
2023-03-14T06:01:57.740Z,9.37
2023-03-14T06:02:57.737Z,9.37
2023-03-14T06:03:57.733Z,9.40
2023-03-14T06:04:57.694Z,9.37
2023-03-14T06:05:57.683Z,9.37
2023-03-14T06:06:57.676Z,9.37
2023-03-14T06:07:57.678Z,9.37
2023-03-14T06:08:57.645Z,9.37
2023-03-14T06:09:57.623Z,9.37
2023-03-14T06:10:57.626Z,9.37
2023-03-14T06:11:57.633Z,9.40
2023-03-14T06:12:57.627Z,9.36
2023-03-14T06:13:57.577Z,9.36
2023-03-14T06:14:57.593Z,9.36
2023-03-14T06:15:57.648Z,9.37
2023-03-14T06:16:57.647Z,9.36
2023-03-14T06:17:57.577Z,9.36
2023-03-14T06:18:57.532Z,9.36
2023-03-14T06:19:57.535Z,9.36
2023-03-14T06:20:57.534Z,9.36
2023-03-14T06:21:57.503Z,9.37
2023-03-14T06:22:57.491Z,9.41
2023-03-14T06:23:57.517Z,9.37
2023-03-14T06:24:57.510Z,9.40
2023-03-14T06:25:57.460Z,9.37
2023-03-14T06:26:57.455Z,9.37
2023-03-14T06:27:57.453Z,9.36
2023-03-14T06:28:57.438Z,9.37
2023-03-14T06:29:57.429Z,9.36
2023-03-14T06:30:57.458Z,9.34
2023-03-14T06:31:57.465Z,9.34
2023-03-14T06:32:57.470Z,9.34
2023-03-14T06:33:57.398Z,9.36
2023-03-14T06:34:57.381Z,9.36
2023-03-14T06:35:57.348Z,9.37
2023-03-14T06:36:57.350Z,9.37
2023-03-14T06:37:57.357Z,9.40
2023-03-14T06:38:57.327Z,9.40
2023-03-14T06:39:57.322Z,9.37
2023-03-14T06:40:57.350Z,9.37
2023-03-14T06:41:57.312Z,9.36
2023-03-14T06:42:57.281Z,9.37
2023-03-14T06:43:57.278Z,9.37
2023-03-14T06:44:57.282Z,9.37
2023-03-14T06:45:57.353Z,9.40
2023-03-14T06:46:57.279Z,9.37
2023-03-14T06:47:57.240Z,9.37
2023-03-14T06:48:57.255Z,9.41
2023-03-14T06:49:57.208Z,9.40
2023-03-14T06:50:57.203Z,9.40
2023-03-14T06:51:57.220Z,9.41
2023-03-14T06:52:57.357Z,9.41
2023-03-14T06:53:57.197Z,9.42
2023-03-14T06:54:57.160Z,9.44
2023-03-14T06:55:57.192Z,9.44
2023-03-14T06:56:57.140Z,9.44
2023-03-14T06:57:57.143Z,9.45
2023-03-14T06:58:57.137Z,9.45
2023-03-14T06:59:57.108Z,9.45
2023-03-14T07:00:57.188Z,9.44
2023-03-14T07:01:57.104Z,9.42
2023-03-14T07:02:57.075Z,9.45
2023-03-14T07:03:57.062Z,9.45
2023-03-14T07:04:57.071Z,9.45
2023-03-14T07:05:57.057Z,9.48
2023-03-14T07:06:57.052Z,9.50
2023-03-14T07:07:57.026Z,9.48
2023-03-14T07:08:57.037Z,9.47
2023-03-14T07:09:56.992Z,9.48
2023-03-14T07:10:56.999Z,9.48
2023-03-14T07:11:56.984Z,9.50
2023-03-14T07:12:56.995Z,9.50
2023-03-14T07:13:56.959Z,9.51
2023-03-14T07:14:59.078Z,9.51
2023-03-14T07:15:56.964Z,9.52
2023-03-14T07:16:56.956Z,9.51
2023-03-14T07:17:56.930Z,9.52
2023-03-14T07:18:56.934Z,9.51
2023-03-14T07:19:56.873Z,9.52
2023-03-14T07:20:56.900Z,9.51
2023-03-14T07:21:56.869Z,9.48
2023-03-14T07:22:56.866Z,9.51
2023-03-14T07:23:56.869Z,9.52
2023-03-14T07:24:56.873Z,9.54
2023-03-14T07:25:56.809Z,9.54
2023-03-14T07:26:56.839Z,9.54
2023-03-14T07:27:56.809Z,9.57
2023-03-14T07:28:56.831Z,9.57
2023-03-14T07:29:56.799Z,9.59
2023-03-14T07:30:56.837Z,9.59
2023-03-14T07:31:56.785Z,9.62
2023-03-14T07:32:56.843Z,9.60
2023-03-14T07:33:56.747Z,9.62
2023-03-14T07:34:56.752Z,9.62
2023-03-14T07:35:56.763Z,9.62
2023-03-14T07:36:56.721Z,9.60
2023-03-14T07:37:56.708Z,9.60
2023-03-14T07:38:56.693Z,9.63
2023-03-14T07:39:56.675Z,9.62
2023-03-14T07:40:56.668Z,9.63
2023-03-14T07:41:57.403Z,9.63
2023-03-14T07:42:56.660Z,9.65
2023-03-14T07:43:56.694Z,9.63
2023-03-14T07:44:56.635Z,9.63
2023-03-14T07:45:59.730Z,9.62
2023-03-14T07:46:56.739Z,9.60
2023-03-14T07:47:56.620Z,9.60
2023-03-14T07:48:56.589Z,9.62
2023-03-14T07:49:56.596Z,9.62
2023-03-14T07:50:56.567Z,9.59
2023-03-14T07:51:56.573Z,9.59
2023-03-14T07:52:56.561Z,9.55
2023-03-14T07:53:56.542Z,9.55
2023-03-14T07:54:56.525Z,9.54
2023-03-14T07:55:56.530Z,9.54
2023-03-14T07:56:56.502Z,9.55
2023-03-14T07:57:56.477Z,9.54
2023-03-14T07:58:56.552Z,9.52
2023-03-14T07:59:56.478Z,9.54
2023-03-14T08:00:56.475Z,9.54
2023-03-14T08:01:56.477Z,9.55
2023-03-14T08:02:56.487Z,9.55
2023-03-14T08:03:56.543Z,9.55
2023-03-14T08:04:56.432Z,9.57
2023-03-14T08:05:56.427Z,9.60
2023-03-14T08:06:56.394Z,9.62
2023-03-14T08:07:56.375Z,9.62
2023-03-14T08:08:56.397Z,9.62
2023-03-14T08:09:56.380Z,9.63
2023-03-14T08:10:56.360Z,9.62
2023-03-14T08:11:57.677Z,9.62
2023-03-14T08:12:56.329Z,9.63
2023-03-14T08:13:56.308Z,9.65
2023-03-14T08:14:56.324Z,9.63
2023-03-14T08:15:56.358Z,9.65
2023-03-14T08:16:56.290Z,9.63
2023-03-14T08:17:56.307Z,9.65
2023-03-14T08:18:56.290Z,9.65
2023-03-14T08:19:56.264Z,9.65
2023-03-14T08:20:56.288Z,9.65
2023-03-14T08:21:56.236Z,9.65
2023-03-14T08:22:56.225Z,9.63
2023-03-14T08:23:56.323Z,9.66
2023-03-14T08:24:56.241Z,9.66
2023-03-14T08:25:56.200Z,9.65
2023-03-14T08:26:56.210Z,9.65
2023-03-14T08:27:56.211Z,9.65
2023-03-14T08:28:56.181Z,9.66
2023-03-14T08:29:56.169Z,9.66
2023-03-14T08:30:56.178Z,9.66
2023-03-14T08:31:56.309Z,9.69
2023-03-14T08:32:56.209Z,9.69
2023-03-14T08:33:56.107Z,9.72
2023-03-14T08:34:56.108Z,9.72
2023-03-14T08:35:56.099Z,9.72
2023-03-14T08:36:56.100Z,9.67
2023-03-14T08:37:56.060Z,9.63
2023-03-14T08:38:56.148Z,9.62
2023-03-14T08:39:56.082Z,9.63
2023-03-14T08:40:56.028Z,9.60
2023-03-14T08:41:56.031Z,9.62
2023-03-14T08:42:56.046Z,9.62
2023-03-14T08:43:56.116Z,9.59
2023-03-14T08:44:56.030Z,9.59
2023-03-14T08:45:55.996Z,9.57
2023-03-14T08:46:56.030Z,9.55
2023-03-14T08:47:55.946Z,9.54
2023-03-14T08:48:55.948Z,9.55
2023-03-14T08:49:56.065Z,9.54
2023-03-14T08:50:55.987Z,9.51
2023-03-14T08:51:55.944Z,9.51
2023-03-14T08:52:55.953Z,9.52
2023-03-14T08:53:55.904Z,9.52
2023-03-14T08:54:55.886Z,9.55
2023-03-14T08:55:55.874Z,9.60
2023-03-14T08:56:55.867Z,9.62
2023-03-14T08:57:55.837Z,9.63
2023-03-14T08:58:55.948Z,9.69
2023-03-14T08:59:55.852Z,9.70
2023-03-14T09:00:55.848Z,9.72
2023-03-14T09:01:55.816Z,9.75
2023-03-14T09:02:55.852Z,9.81
2023-03-14T09:03:55.848Z,9.85
2023-03-14T09:04:55.770Z,9.83
2023-03-14T09:05:55.757Z,9.83
2023-03-14T09:06:55.794Z,9.83
2023-03-14T09:07:55.774Z,9.84
2023-03-14T09:08:55.754Z,9.87
2023-03-14T09:09:55.710Z,9.90
2023-03-14T09:10:55.710Z,9.90
2023-03-14T09:11:55.719Z,9.94
2023-03-14T09:12:55.682Z,10.02
2023-03-14T09:13:55.700Z,10.06
2023-03-14T09:14:55.674Z,10.08
2023-03-14T09:15:55.651Z,10.12
2023-03-14T09:16:55.716Z,10.18
2023-03-14T09:17:55.631Z,10.20
2023-03-14T09:18:55.628Z,10.24
2023-03-14T09:19:55.606Z,10.26
2023-03-14T09:20:55.633Z,10.31
2023-03-14T09:21:55.579Z,10.38
2023-03-14T09:22:55.582Z,10.49
2023-03-14T09:23:55.590Z,10.58
2023-03-14T09:24:55.558Z,10.58
2023-03-14T09:25:55.545Z,10.58
2023-03-14T09:26:55.525Z,10.68
2023-03-14T09:27:55.542Z,10.75
2023-03-14T09:28:58.178Z,10.76
2023-03-14T09:29:55.489Z,10.76
2023-03-14T09:30:55.519Z,10.73
2023-03-14T09:31:55.533Z,10.72
2023-03-14T09:32:55.551Z,10.70
2023-03-14T09:33:55.447Z,10.72
2023-03-14T09:34:55.458Z,10.70
2023-03-14T09:35:55.484Z,10.73
2023-03-14T09:36:55.462Z,10.75
2023-03-14T09:37:55.413Z,10.79
2023-03-14T09:38:55.400Z,10.83
2023-03-14T09:39:55.413Z,10.85
2023-03-14T09:40:55.389Z,10.80
2023-03-14T09:41:55.472Z,10.85
2023-03-14T09:42:55.367Z,10.79
2023-03-14T09:43:55.369Z,10.68
2023-03-14T09:44:55.330Z,10.61
2023-03-14T09:45:55.443Z,10.54
2023-03-14T09:46:55.324Z,10.48
2023-03-14T09:47:59.617Z,10.46
2023-03-14T09:48:55.294Z,10.42
2023-03-14T09:49:55.304Z,10.38
2023-03-14T09:50:55.302Z,10.30
2023-03-14T09:51:55.269Z,10.26
2023-03-14T09:52:55.263Z,10.24
2023-03-14T09:53:55.235Z,10.23
2023-03-14T09:54:55.205Z,10.21
2023-03-14T09:55:55.206Z,10.18
2023-03-14T09:56:55.200Z,10.17
2023-03-14T09:57:55.261Z,10.18
2023-03-14T09:58:55.185Z,10.20
2023-03-14T09:59:55.189Z,10.20
2023-03-14T10:00:55.213Z,10.20
2023-03-14T10:01:55.132Z,10.20
2023-03-14T10:02:55.115Z,10.21
2023-03-14T10:03:55.145Z,10.23
2023-03-14T10:04:55.099Z,10.27
2023-03-14T10:05:55.109Z,10.28
2023-03-14T10:06:55.078Z,10.35
2023-03-14T10:07:55.078Z,10.38
2023-03-14T10:08:55.056Z,10.41
2023-03-14T10:09:55.078Z,10.41
2023-03-14T10:10:55.037Z,10.39
2023-03-14T10:11:55.021Z,10.36
2023-03-14T10:12:55.285Z,10.36
2023-03-14T10:13:55.024Z,10.35
2023-03-14T10:14:54.990Z,10.34
2023-03-14T10:15:54.998Z,10.30
2023-03-14T10:16:55.027Z,10.34
2023-03-14T10:17:54.972Z,10.31
2023-03-14T10:18:54.951Z,10.28
2023-03-14T10:19:54.965Z,10.27
2023-03-14T10:20:54.955Z,10.30
2023-03-14T10:21:54.990Z,10.31
2023-03-14T10:22:54.907Z,10.36
2023-03-14T10:23:54.904Z,10.38
2023-03-14T10:24:54.892Z,10.41
2023-03-14T10:25:54.870Z,10.42
2023-03-14T10:26:54.852Z,10.43
2023-03-14T10:27:54.856Z,10.45
2023-03-14T10:28:54.869Z,10.46
2023-03-14T10:29:54.839Z,10.54
2023-03-14T10:30:54.944Z,10.55
2023-03-14T10:31:54.964Z,10.58
2023-03-14T10:32:54.853Z,10.61
2023-03-14T10:33:54.828Z,10.62
2023-03-14T10:34:54.781Z,10.64
2023-03-14T10:35:54.903Z,10.64
2023-03-14T10:36:54.756Z,10.64
2023-03-14T10:37:54.768Z,10.61
2023-03-14T10:38:54.745Z,10.60
2023-03-14T10:39:54.762Z,10.57
2023-03-14T10:40:54.742Z,10.55
2023-03-14T10:41:54.719Z,10.52
2023-03-14T10:42:54.693Z,10.48
2023-03-14T10:43:54.702Z,10.48
2023-03-14T10:44:54.680Z,10.45
2023-03-14T10:45:54.811Z,10.42
2023-03-14T10:46:54.648Z,10.41
2023-03-14T10:47:54.659Z,10.39
2023-03-14T10:48:54.632Z,10.35
2023-03-14T10:49:54.623Z,10.36
2023-03-14T10:50:54.637Z,10.34
2023-03-14T10:51:54.623Z,10.28
2023-03-14T10:53:02.631Z,10.27
2023-03-14T10:53:54.581Z,10.24
2023-03-14T10:54:54.590Z,10.24
2023-03-14T10:55:54.572Z,10.20
2023-03-14T10:56:54.554Z,10.18
2023-03-14T10:57:54.556Z,10.16
2023-03-14T10:58:54.539Z,10.12
2023-03-14T10:59:54.516Z,10.09
2023-03-14T11:00:54.486Z,10.06
2023-03-14T11:01:54.571Z,10.03
2023-03-14T11:02:54.483Z,9.99
2023-03-14T11:03:54.484Z,9.98
2023-03-14T11:04:54.537Z,9.93
2023-03-14T11:05:54.492Z,9.88
2023-03-14T11:06:54.445Z,9.85
2023-03-14T11:07:54.489Z,9.84
2023-03-14T11:08:54.430Z,9.81
2023-03-14T11:09:54.441Z,9.80
2023-03-14T11:10:54.406Z,9.75
2023-03-14T11:11:54.387Z,9.73
2023-03-14T11:12:54.372Z,9.72
2023-03-14T11:13:54.364Z,9.72
2023-03-14T11:14:54.344Z,9.72
2023-03-14T11:15:54.421Z,9.70
2023-03-14T11:16:54.321Z,9.69
2023-03-14T11:17:54.308Z,9.66
2023-03-14T11:18:54.311Z,9.66
2023-03-14T11:19:54.395Z,9.67
2023-03-14T11:20:54.280Z,9.67
2023-03-14T11:21:54.287Z,9.67
2023-03-14T11:22:54.271Z,9.67
2023-03-14T11:23:54.260Z,9.65
2023-03-14T11:24:54.221Z,9.65
2023-03-14T11:25:54.314Z,9.66
2023-03-14T11:26:54.225Z,9.66
2023-03-14T11:27:54.200Z,9.65
2023-03-14T11:28:54.170Z,9.63
2023-03-14T11:29:54.176Z,9.62
2023-03-14T11:30:54.268Z,9.59
2023-03-14T11:31:54.170Z,9.59
2023-03-14T11:32:54.186Z,9.59
2023-03-14T11:33:54.156Z,9.59
2023-03-14T11:34:54.171Z,9.59
2023-03-14T11:35:54.188Z,9.59
2023-03-14T11:36:54.088Z,9.60
2023-03-14T11:37:54.187Z,9.62
2023-03-14T11:38:54.095Z,9.63
2023-03-14T11:39:54.061Z,9.62
2023-03-14T11:40:54.049Z,9.65
2023-03-14T11:41:54.138Z,9.63
2023-03-14T11:42:54.029Z,9.66
2023-03-14T11:43:54.064Z,9.67
2023-03-14T11:44:54.010Z,9.67
2023-03-14T11:45:54.017Z,9.66
2023-03-14T11:46:54.072Z,9.66
2023-03-14T11:47:53.968Z,9.67
2023-03-14T11:48:53.966Z,9.66
2023-03-14T11:49:53.982Z,9.69
2023-03-14T11:50:53.953Z,9.67
2023-03-14T11:51:53.936Z,9.67
2023-03-14T11:52:53.934Z,9.69
2023-03-14T11:53:53.928Z,9.67
2023-03-14T11:54:53.898Z,9.67
2023-03-14T11:55:53.925Z,9.70
2023-03-14T11:56:53.910Z,9.70
2023-03-14T11:57:53.877Z,9.72
2023-03-14T11:58:53.866Z,9.72
2023-03-14T11:59:53.848Z,9.73
2023-03-14T12:00:53.847Z,9.75
2023-03-14T12:01:53.868Z,9.75
2023-03-14T12:02:53.833Z,9.78
2023-03-14T12:03:53.844Z,9.77
2023-03-14T12:04:53.786Z,9.75
2023-03-14T12:05:53.799Z,9.77
2023-03-14T12:06:53.781Z,9.77
2023-03-14T12:07:53.780Z,9.75
2023-03-14T12:08:53.763Z,9.72
2023-03-14T12:09:53.773Z,9.72
2023-03-14T12:10:53.723Z,9.69
2023-03-14T12:11:53.748Z,9.52
2023-03-14T12:12:53.702Z,9.37
2023-03-14T12:13:53.711Z,9.24
2023-03-14T12:14:53.703Z,9.11
2023-03-14T12:15:53.772Z,8.93
2023-03-14T12:16:56.014Z,8.83
2023-03-14T12:17:53.644Z,8.80
2023-03-14T12:18:53.630Z,8.77
2023-03-14T12:19:53.653Z,8.74
2023-03-14T12:20:53.621Z,8.77
2023-03-14T12:21:53.726Z,8.74
2023-03-14T12:22:53.594Z,8.72
2023-03-14T12:23:53.624Z,8.71
2023-03-14T12:24:53.577Z,8.71
2023-03-14T12:25:53.593Z,8.67
2023-03-14T12:26:53.554Z,8.60
2023-03-14T12:27:53.583Z,8.62
2023-03-14T12:28:53.533Z,8.59
2023-03-14T12:29:53.545Z,8.59
2023-03-14T12:30:53.598Z,8.56
2023-03-14T12:31:53.545Z,8.55
2023-03-14T12:32:53.519Z,8.53
2023-03-14T12:33:53.479Z,8.50
2023-03-14T12:34:53.505Z,8.52
2023-03-14T12:35:53.554Z,8.53
2023-03-14T12:36:53.453Z,8.56
2023-03-14T12:37:53.473Z,8.55
2023-03-14T12:38:53.455Z,8.52
2023-03-14T12:39:53.433Z,8.55
2023-03-14T12:40:53.425Z,8.52
2023-03-14T12:41:53.412Z,8.52
2023-03-14T12:42:53.378Z,8.53
2023-03-14T12:43:53.395Z,8.55
2023-03-14T12:44:53.369Z,8.57
2023-03-14T12:45:53.412Z,8.60
2023-03-14T12:46:53.383Z,8.62
2023-03-14T12:47:53.349Z,8.65
2023-03-14T12:48:53.318Z,8.70
2023-03-14T12:49:53.342Z,8.81
2023-03-14T12:50:53.300Z,9.12
2023-03-14T12:51:53.286Z,9.24
2023-03-14T12:52:53.278Z,9.36
2023-03-14T12:53:53.269Z,9.44
2023-03-14T12:54:53.278Z,9.37
2023-03-14T12:55:53.256Z,9.32
2023-03-14T12:56:53.239Z,9.32
2023-03-14T12:57:53.277Z,9.32
2023-03-14T12:58:53.209Z,9.24
2023-03-14T12:59:53.238Z,9.22
2023-03-14T13:00:53.213Z,9.16
2023-03-14T13:01:53.193Z,9.15
2023-03-14T13:02:53.203Z,9.12
2023-03-14T13:03:53.216Z,9.08
2023-03-14T13:04:53.240Z,9.01
2023-03-14T13:05:53.214Z,8.96
2023-03-14T13:06:53.168Z,8.98
2023-03-14T13:07:53.148Z,9.01
2023-03-14T13:08:53.149Z,9.03
2023-03-14T13:09:53.518Z,9.04
2023-03-14T13:10:53.534Z,9.06
2023-03-14T13:11:53.087Z,9.08
2023-03-14T13:12:53.234Z,9.04
2023-03-14T13:13:53.206Z,9.03